createdAt,value
2018-03-18T00:00:05.228Z,-5.40
2018-03-18T00:01:04.736Z,-5.40
2018-03-18T00:02:04.776Z,-5.30
2018-03-18T00:03:04.868Z,-5.40
2018-03-18T00:04:04.958Z,-5.40
2018-03-18T00:05:05.542Z,-5.40
2018-03-18T00:06:05.140Z,-5.40
2018-03-18T00:07:05.446Z,-5.40
2018-03-18T00:08:05.341Z,-5.40
2018-03-18T00:09:04.755Z,-5.40
2018-03-18T00:10:05.332Z,-5.30
2018-03-18T00:11:05.259Z,-5.40
2018-03-18T00:12:05.360Z,-5.40
2018-03-18T00:13:05.567Z,-5.40
2018-03-18T00:14:05.153Z,-5.40
2018-03-18T00:15:05.072Z,-5.40
2018-03-18T00:16:05.062Z,-5.40
2018-03-18T00:17:04.747Z,-5.40
2018-03-18T00:18:05.159Z,-5.40
2018-03-18T00:19:04.860Z,-5.40
2018-03-18T00:20:05.525Z,-5.40
2018-03-18T00:21:05.270Z,-5.40
2018-03-18T00:22:04.815Z,-5.40
2018-03-18T00:23:05.165Z,-5.40
2018-03-18T00:24:05.767Z,-5.40
2018-03-18T00:25:04.885Z,-5.40
2018-03-18T00:26:05.569Z,-5.40
2018-03-18T00:27:05.302Z,-5.40
2018-03-18T00:28:04.824Z,-5.40
2018-03-18T00:29:09.783Z,-5.40
2018-03-18T00:30:04.979Z,-5.40
2018-03-18T00:31:05.560Z,-5.40
2018-03-18T00:32:05.217Z,-5.40
2018-03-18T00:33:05.506Z,-5.40
2018-03-18T00:34:05.521Z,-5.40
2018-03-18T00:35:05.493Z,-5.40
2018-03-18T00:36:05.211Z,-5.40
2018-03-18T00:37:05.247Z,-5.40
2018-03-18T00:38:05.396Z,-5.40
2018-03-18T00:39:04.955Z,-5.40
2018-03-18T00:40:05.103Z,-5.40
2018-03-18T00:41:05.169Z,-5.40
2018-03-18T00:42:05.047Z,-5.40
2018-03-18T00:43:04.988Z,-5.40
2018-03-18T00:44:04.645Z,-5.40
2018-03-18T00:45:05.178Z,-5.40
2018-03-18T00:46:04.753Z,-5.40
2018-03-18T00:47:05.332Z,-5.40
2018-03-18T00:48:05.507Z,-5.40
2018-03-18T00:49:05.569Z,-5.40
2018-03-18T00:50:05.070Z,-5.40
2018-03-18T00:51:04.958Z,-5.30
2018-03-18T00:52:05.484Z,-5.30
2018-03-18T00:53:05.190Z,-5.40
2018-03-18T00:54:05.286Z,-5.40
2018-03-18T00:55:05.385Z,-5.40
2018-03-18T00:56:04.861Z,-5.40
2018-03-18T00:57:05.068Z,-5.40
2018-03-18T00:58:04.686Z,-5.40
2018-03-18T00:59:05.406Z,-5.40
2018-03-18T01:00:05.632Z,-5.40
2018-03-18T01:01:05.025Z,-5.40
2018-03-18T01:02:04.726Z,-5.40
2018-03-18T01:03:05.105Z,-5.40
2018-03-18T01:04:05.083Z,-5.40
2018-03-18T01:05:05.113Z,-5.40
2018-03-18T01:06:05.104Z,-5.40
2018-03-18T01:07:05.562Z,-5.40
2018-03-18T01:08:04.863Z,-5.40
2018-03-18T01:09:05.654Z,-5.40
2018-03-18T01:10:04.979Z,-5.40
2018-03-18T01:11:04.986Z,-5.40
2018-03-18T01:12:05.478Z,-5.40
2018-03-18T01:13:05.483Z,-5.40
2018-03-18T01:14:04.893Z,-5.40
2018-03-18T01:15:04.809Z,-5.40
2018-03-18T01:16:04.757Z,-5.40
2018-03-18T01:17:04.818Z,-5.40
2018-03-18T01:18:04.648Z,-5.40
2018-03-18T01:19:05.517Z,-5.40
2018-03-18T01:20:05.375Z,-5.40
2018-03-18T01:21:05.356Z,-5.40
2018-03-18T01:22:04.677Z,-5.40
2018-03-18T01:23:04.854Z,-5.40
2018-03-18T01:24:04.843Z,-5.40
2018-03-18T01:25:06.374Z,-5.40
2018-03-18T01:26:05.603Z,-5.40
2018-03-18T01:27:04.657Z,-5.40
2018-03-18T01:28:05.463Z,-5.40
2018-03-18T01:29:05.582Z,-5.40
2018-03-18T01:30:05.073Z,-5.40
2018-03-18T01:31:05.092Z,-5.40
2018-03-18T01:32:04.999Z,-5.40
2018-03-18T01:33:05.130Z,-5.40
2018-03-18T01:34:05.010Z,-5.40
2018-03-18T01:35:04.632Z,-5.40
2018-03-18T01:36:05.282Z,-5.40
2018-03-18T01:37:04.830Z,-5.40
2018-03-18T01:38:05.309Z,-5.40
2018-03-18T01:39:05.474Z,-5.40
2018-03-18T01:40:06.943Z,-5.40
2018-03-18T01:41:05.350Z,-5.40
2018-03-18T01:42:05.133Z,-5.40
2018-03-18T01:43:05.155Z,-5.40
2018-03-18T01:44:05.142Z,-5.40
2018-03-18T01:45:05.556Z,-5.40
2018-03-18T01:46:05.352Z,-5.40
2018-03-18T01:47:05.176Z,-5.40
2018-03-18T01:48:05.661Z,-5.40
2018-03-18T01:49:05.162Z,-5.40
2018-03-18T01:50:04.643Z,-5.40
2018-03-18T01:51:04.872Z,-5.40
2018-03-18T01:52:05.515Z,-5.40
2018-03-18T01:53:05.238Z,-5.40
2018-03-18T01:54:05.550Z,-5.50
2018-03-18T01:55:05.446Z,-5.40
2018-03-18T01:56:05.392Z,-5.50
2018-03-18T01:57:05.322Z,-5.40
2018-03-18T01:58:05.250Z,-5.50
2018-03-18T01:59:05.532Z,-5.50
2018-03-18T02:00:05.502Z,-5.50
2018-03-18T02:01:05.103Z,-5.50
2018-03-18T02:02:05.026Z,-5.50
2018-03-18T02:03:05.087Z,-5.50
2018-03-18T02:04:04.620Z,-5.50
2018-03-18T02:05:05.585Z,-5.50
2018-03-18T02:06:04.745Z,-5.50
2018-03-18T02:07:05.320Z,-5.50
2018-03-18T02:08:09.710Z,-5.50
2018-03-18T02:09:04.891Z,-5.50
2018-03-18T02:10:04.740Z,-5.50
2018-03-18T02:11:08.539Z,-5.50
2018-03-18T02:12:05.588Z,-5.50
2018-03-18T02:13:05.012Z,-5.50
2018-03-18T02:14:04.927Z,-5.50
2018-03-18T02:15:05.090Z,-5.50
2018-03-18T02:16:05.751Z,-5.50
2018-03-18T02:17:04.919Z,-5.50
2018-03-18T02:18:05.019Z,-5.50
2018-03-18T02:19:05.207Z,-5.50
2018-03-18T02:20:05.336Z,-5.50
2018-03-18T02:21:04.756Z,-5.50
2018-03-18T02:22:05.519Z,-5.50
2018-03-18T02:23:04.826Z,-5.50
2018-03-18T02:24:04.810Z,-5.50
2018-03-18T02:25:04.949Z,-5.50
2018-03-18T02:26:05.504Z,-5.50
2018-03-18T02:27:05.233Z,-5.50
2018-03-18T02:28:05.073Z,-5.50
2018-03-18T02:29:05.304Z,-5.50
2018-03-18T02:30:05.043Z,-5.60
2018-03-18T02:31:04.847Z,-5.60
2018-03-18T02:32:04.695Z,-5.60
2018-03-18T02:33:05.428Z,-5.60
2018-03-18T02:34:05.299Z,-5.60
2018-03-18T02:35:05.217Z,-5.60
2018-03-18T02:36:05.029Z,-5.60
2018-03-18T02:37:05.487Z,-5.60
2018-03-18T02:38:05.545Z,-5.60
2018-03-18T02:39:05.538Z,-5.60
2018-03-18T02:40:05.170Z,-5.60
2018-03-18T02:41:05.760Z,-5.60
2018-03-18T02:42:05.109Z,-5.60
2018-03-18T02:43:05.088Z,-5.60
2018-03-18T02:44:05.485Z,-5.70
2018-03-18T02:45:05.341Z,-5.60
2018-03-18T02:46:05.439Z,-5.60
2018-03-18T02:47:05.250Z,-5.60
2018-03-18T02:48:05.412Z,-5.70
2018-03-18T02:49:05.238Z,-5.70
2018-03-18T02:50:05.430Z,-5.60
2018-03-18T02:51:05.166Z,-5.70
2018-03-18T02:52:04.977Z,-5.70
2018-03-18T02:53:05.355Z,-5.70
2018-03-18T02:54:05.394Z,-5.70
2018-03-18T02:55:05.342Z,-5.70
2018-03-18T02:56:04.650Z,-5.70
2018-03-18T02:57:05.214Z,-5.70
2018-03-18T02:58:05.102Z,-5.70
2018-03-18T02:59:05.405Z,-5.70
2018-03-18T03:00:05.223Z,-5.70
2018-03-18T03:01:05.024Z,-5.70
2018-03-18T03:02:04.781Z,-5.70
2018-03-18T03:03:05.574Z,-5.70
2018-03-18T03:04:05.464Z,-5.70
2018-03-18T03:05:05.188Z,-5.70
2018-03-18T03:06:04.923Z,-5.70
2018-03-18T03:07:05.449Z,-5.70
2018-03-18T03:08:05.570Z,-5.70
2018-03-18T03:09:05.225Z,-5.70
2018-03-18T03:10:05.662Z,-5.70
2018-03-18T03:11:05.130Z,-5.70
2018-03-18T03:12:05.204Z,-5.70
2018-03-18T03:13:05.468Z,-5.80
2018-03-18T03:14:05.334Z,-5.80
2018-03-18T03:15:05.234Z,-5.80
2018-03-18T03:16:05.193Z,-5.80
2018-03-18T03:17:05.177Z,-5.80
2018-03-18T03:18:05.016Z,-5.80
2018-03-18T03:19:05.028Z,-5.80
2018-03-18T03:20:05.113Z,-5.80
2018-03-18T03:21:04.772Z,-5.80
2018-03-18T03:22:05.235Z,-5.80
2018-03-18T03:23:04.953Z,-5.80
2018-03-18T03:24:05.630Z,-5.80
2018-03-18T03:25:05.530Z,-5.80
2018-03-18T03:26:05.234Z,-5.80
2018-03-18T03:27:05.278Z,-5.80
2018-03-18T03:28:05.156Z,-5.80
2018-03-18T03:29:05.037Z,-5.80
2018-03-18T03:30:05.813Z,-5.80
2018-03-18T03:31:05.601Z,-5.80
2018-03-18T03:32:05.173Z,-5.80
2018-03-18T03:33:04.904Z,-5.80
2018-03-18T03:34:05.588Z,-5.80
2018-03-18T03:35:05.799Z,-5.80
2018-03-18T03:36:05.647Z,-5.80
2018-03-18T03:37:04.972Z,-5.80
2018-03-18T03:38:04.889Z,-5.80
2018-03-18T03:39:04.664Z,-5.80
2018-03-18T03:40:04.871Z,-5.80
2018-03-18T03:41:04.877Z,-5.80
2018-03-18T03:42:04.621Z,-5.80
2018-03-18T03:43:04.944Z,-5.80
2018-03-18T03:44:05.610Z,-5.80
2018-03-18T03:45:04.986Z,-5.90
2018-03-18T03:46:04.734Z,-5.80
2018-03-18T03:47:05.457Z,-5.90
2018-03-18T03:48:05.547Z,-5.90
2018-03-18T03:49:04.739Z,-5.90
2018-03-18T03:50:05.369Z,-5.90
2018-03-18T03:51:04.863Z,-5.90
2018-03-18T03:52:04.897Z,-5.90
2018-03-18T03:53:04.835Z,-5.90
2018-03-18T03:54:05.505Z,-5.90
2018-03-18T03:55:05.604Z,-5.90
2018-03-18T03:56:05.493Z,-5.90
2018-03-18T03:57:05.533Z,-5.90
2018-03-18T03:58:04.837Z,-5.90
2018-03-18T03:59:04.829Z,-5.90
2018-03-18T04:00:05.113Z,-5.90
2018-03-18T04:01:04.948Z,-5.90
2018-03-18T04:02:04.997Z,-5.90
2018-03-18T04:03:05.049Z,-5.90
2018-03-18T04:04:05.758Z,-6.00
2018-03-18T04:05:04.876Z,-6.00
2018-03-18T04:06:04.947Z,-6.00
2018-03-18T04:07:04.760Z,-6.00
2018-03-18T04:08:05.416Z,-6.00
2018-03-18T04:09:04.641Z,-6.00
2018-03-18T04:10:04.733Z,-6.00
2018-03-18T04:11:05.315Z,-6.00
2018-03-18T04:12:06.273Z,-6.00
2018-03-18T04:13:05.266Z,-6.00
2018-03-18T04:14:05.284Z,-6.00
2018-03-18T04:15:04.951Z,-6.00
2018-03-18T04:16:05.052Z,-6.10
2018-03-18T04:17:04.926Z,-6.10
2018-03-18T04:18:05.037Z,-6.10
2018-03-18T04:19:05.538Z,-6.10
2018-03-18T04:20:04.771Z,-6.10
2018-03-18T04:21:05.140Z,-6.10
2018-03-18T04:22:04.956Z,-6.10
2018-03-18T04:23:05.666Z,-6.10
2018-03-18T04:24:04.723Z,-6.10
2018-03-18T04:25:05.159Z,-6.10
2018-03-18T04:26:05.504Z,-6.10
2018-03-18T04:27:05.510Z,-6.10
2018-03-18T04:28:05.603Z,-6.10
2018-03-18T04:29:05.246Z,-6.10
2018-03-18T04:30:05.528Z,-6.10
2018-03-18T04:31:05.559Z,-6.10
2018-03-18T04:32:05.321Z,-6.20
2018-03-18T04:33:04.877Z,-6.20
2018-03-18T04:34:05.174Z,-6.20
2018-03-18T04:35:05.010Z,-6.20
2018-03-18T04:36:04.784Z,-6.20
2018-03-18T04:37:04.793Z,-6.20
2018-03-18T04:38:05.226Z,-6.20
2018-03-18T04:39:05.146Z,-6.20
2018-03-18T04:40:05.261Z,-6.20
2018-03-18T04:41:04.740Z,-6.20
2018-03-18T04:42:05.565Z,-6.20
2018-03-18T04:43:04.895Z,-6.20
2018-03-18T04:44:04.665Z,-6.20
2018-03-18T04:45:04.796Z,-6.20
2018-03-18T04:46:04.858Z,-6.20
2018-03-18T04:47:05.686Z,-6.20
2018-03-18T04:48:05.171Z,-6.20
2018-03-18T04:49:05.157Z,-6.20
2018-03-18T04:50:05.275Z,-6.20
2018-03-18T04:51:04.676Z,-6.20
2018-03-18T04:52:05.038Z,-6.20
2018-03-18T04:53:05.676Z,-6.30
2018-03-18T04:54:05.181Z,-6.30
2018-03-18T04:55:06.366Z,-6.30
2018-03-18T04:56:05.057Z,-6.30
2018-03-18T04:57:04.980Z,-6.30
2018-03-18T04:58:05.157Z,-6.30
2018-03-18T04:59:04.939Z,-6.30
2018-03-18T05:00:04.987Z,-6.30
2018-03-18T05:01:04.844Z,-6.30
2018-03-18T05:02:04.697Z,-6.30
2018-03-18T05:03:05.416Z,-6.30
2018-03-18T05:04:04.793Z,-6.30
2018-03-18T05:05:05.165Z,-6.30
2018-03-18T05:06:10.085Z,-6.30
2018-03-18T05:07:05.214Z,-6.30
2018-03-18T05:08:05.386Z,-6.30
2018-03-18T05:09:05.605Z,-6.30
2018-03-18T05:10:05.068Z,-6.30
2018-03-18T05:11:05.033Z,-6.30
2018-03-18T05:12:05.454Z,-6.40
2018-03-18T05:13:04.666Z,-6.40
2018-03-18T05:14:05.251Z,-6.40
2018-03-18T05:15:05.289Z,-6.30
2018-03-18T05:16:05.680Z,-6.40
2018-03-18T05:17:04.919Z,-6.40
2018-03-18T05:18:05.028Z,-6.40
2018-03-18T05:19:04.866Z,-6.40
2018-03-18T05:20:05.555Z,-6.40
2018-03-18T05:21:05.193Z,-6.40
2018-03-18T05:22:05.156Z,-6.40
2018-03-18T05:23:05.270Z,-6.40
2018-03-18T05:24:05.613Z,-6.40
2018-03-18T05:25:04.838Z,-6.40
2018-03-18T05:26:05.255Z,-6.40
2018-03-18T05:27:05.545Z,-6.40
2018-03-18T05:28:05.573Z,-6.40
2018-03-18T05:29:05.569Z,-6.40
2018-03-18T05:30:05.348Z,-6.40
2018-03-18T05:31:04.977Z,-6.40
2018-03-18T05:32:05.417Z,-6.50
2018-03-18T05:33:05.469Z,-6.40
2018-03-18T05:34:05.796Z,-6.50
2018-03-18T05:35:05.638Z,-6.50
2018-03-18T05:36:04.758Z,-6.40
2018-03-18T05:37:05.555Z,-6.40
2018-03-18T05:38:05.101Z,-6.50
2018-03-18T05:39:04.971Z,-6.40
2018-03-18T05:40:05.424Z,-6.50
2018-03-18T05:41:05.517Z,-6.50
2018-03-18T05:42:04.811Z,-6.50
2018-03-18T05:43:04.915Z,-6.50
2018-03-18T05:44:05.233Z,-6.50
2018-03-18T05:45:05.611Z,-6.50
2018-03-18T05:46:05.278Z,-6.50
2018-03-18T05:47:05.639Z,-6.50
2018-03-18T05:48:04.850Z,-6.50
2018-03-18T05:49:05.365Z,-6.50
2018-03-18T05:50:04.856Z,-6.50
2018-03-18T05:51:05.325Z,-6.50
2018-03-18T05:52:05.549Z,-6.50
2018-03-18T05:53:05.536Z,-6.50
2018-03-18T05:54:05.020Z,-6.50
2018-03-18T05:55:05.096Z,-6.50
2018-03-18T05:56:05.508Z,-6.50
2018-03-18T05:57:04.990Z,-6.50
2018-03-18T05:58:05.080Z,-6.50
2018-03-18T05:59:05.347Z,-6.50
2018-03-18T06:00:05.149Z,-6.50
2018-03-18T06:01:05.093Z,-6.50
2018-03-18T06:02:04.937Z,-6.50
2018-03-18T06:03:05.229Z,-6.50
2018-03-18T06:04:04.897Z,-6.50
2018-03-18T06:05:05.468Z,-6.50
2018-03-18T06:06:05.553Z,-6.50
2018-03-18T06:07:05.523Z,-6.50
2018-03-18T06:08:05.158Z,-6.50
2018-03-18T06:09:04.602Z,-6.50
2018-03-18T06:10:05.409Z,-6.50
2018-03-18T06:11:05.534Z,-6.50
2018-03-18T06:12:05.493Z,-6.50
2018-03-18T06:13:05.552Z,-6.50
2018-03-18T06:14:04.748Z,-6.50
2018-03-18T06:15:04.823Z,-6.50
2018-03-18T06:16:05.490Z,-6.50
2018-03-18T06:17:05.477Z,-6.50
2018-03-18T06:18:09.956Z,-6.50
2018-03-18T06:19:05.049Z,-6.50
2018-03-18T06:20:05.411Z,-6.50
2018-03-18T06:21:05.175Z,-6.50
2018-03-18T06:22:05.305Z,-6.50
2018-03-18T06:23:05.102Z,-6.50
2018-03-18T06:24:05.525Z,-6.50
2018-03-18T06:25:05.599Z,-6.50
2018-03-18T06:26:05.361Z,-6.50
2018-03-18T06:27:05.540Z,-6.50
2018-03-18T06:28:05.636Z,-6.50
2018-03-18T06:29:05.328Z,-6.50
2018-03-18T06:30:04.831Z,-6.50
2018-03-18T06:31:05.112Z,-6.50
2018-03-18T06:32:05.186Z,-6.50
2018-03-18T06:33:04.902Z,-6.50
2018-03-18T06:34:05.374Z,-6.50
2018-03-18T06:35:05.447Z,-6.50
2018-03-18T06:36:04.766Z,-6.50
2018-03-18T06:37:05.169Z,-6.50
2018-03-18T06:38:04.801Z,-6.50
2018-03-18T06:39:04.926Z,-6.50
2018-03-18T06:40:05.599Z,-6.50
2018-03-18T06:41:05.202Z,-6.50
2018-03-18T06:42:04.620Z,-6.50
2018-03-18T06:43:05.299Z,-6.50
2018-03-18T06:44:05.302Z,-6.50
2018-03-18T06:45:04.969Z,-6.50
2018-03-18T06:46:05.320Z,-6.50
2018-03-18T06:47:05.008Z,-6.50
2018-03-18T06:48:05.240Z,-6.50
2018-03-18T06:49:04.913Z,-6.40
2018-03-18T06:50:05.373Z,-6.40
2018-03-18T06:51:04.997Z,-6.40
2018-03-18T06:52:05.500Z,-6.40
2018-03-18T06:53:05.198Z,-6.40
2018-03-18T06:54:05.117Z,-6.40
2018-03-18T06:55:05.565Z,-6.40
2018-03-18T06:56:05.065Z,-6.40
2018-03-18T06:57:04.636Z,-6.40
2018-03-18T06:58:05.458Z,-6.40
2018-03-18T06:59:05.485Z,-6.50
2018-03-18T07:00:04.940Z,-6.40
2018-03-18T07:01:05.481Z,-6.50
2018-03-18T07:02:04.717Z,-6.50
2018-03-18T07:03:04.853Z,-6.50
2018-03-18T07:04:04.915Z,-6.40
2018-03-18T07:05:04.835Z,-6.50
2018-03-18T07:06:04.857Z,-6.50
2018-03-18T07:07:04.632Z,-6.50
2018-03-18T07:08:05.514Z,-6.50
2018-03-18T07:09:05.507Z,-6.40
2018-03-18T07:10:05.061Z,-6.50
2018-03-18T07:11:04.957Z,-6.40
2018-03-18T07:12:05.191Z,-6.40
2018-03-18T07:13:05.209Z,-6.40
2018-03-18T07:14:05.130Z,-6.40
2018-03-18T07:15:05.395Z,-6.40
2018-03-18T07:16:05.228Z,-6.40
2018-03-18T07:17:05.150Z,-6.40
2018-03-18T07:18:05.061Z,-6.40
2018-03-18T07:19:05.295Z,-6.40
2018-03-18T07:20:05.426Z,-6.40
2018-03-18T07:21:04.871Z,-6.40
2018-03-18T07:22:05.081Z,-6.40
2018-03-18T07:23:05.014Z,-6.40
2018-03-18T07:24:04.690Z,-6.40
2018-03-18T07:25:05.508Z,-6.40
2018-03-18T07:26:06.568Z,-6.40
2018-03-18T07:27:04.904Z,-6.40
2018-03-18T07:28:04.791Z,-6.40
2018-03-18T07:29:05.108Z,-6.40
2018-03-18T07:30:05.091Z,-6.40
2018-03-18T07:31:05.507Z,-6.40
2018-03-18T07:32:05.489Z,-6.40
2018-03-18T07:33:05.639Z,-6.40
2018-03-18T07:34:04.952Z,-6.40
2018-03-18T07:35:05.664Z,-6.40
2018-03-18T07:36:05.379Z,-6.40
2018-03-18T07:37:05.443Z,-6.40
2018-03-18T07:38:05.377Z,-6.40
2018-03-18T07:39:05.275Z,-6.40
2018-03-18T07:40:05.412Z,-6.40
2018-03-18T07:41:05.422Z,-6.40
2018-03-18T07:42:04.735Z,-6.30
2018-03-18T07:43:05.242Z,-6.30
2018-03-18T07:44:04.750Z,-6.30
2018-03-18T07:45:04.659Z,-6.20
2018-03-18T07:46:05.090Z,-6.20
2018-03-18T07:47:05.605Z,-6.20
2018-03-18T07:48:05.100Z,-6.20
2018-03-18T07:49:05.473Z,-6.20
2018-03-18T07:50:05.333Z,-6.20
2018-03-18T07:51:04.995Z,-6.20
2018-03-18T07:52:05.193Z,-6.20
2018-03-18T07:53:04.819Z,-6.20
2018-03-18T07:54:04.939Z,-6.20
2018-03-18T07:55:05.557Z,-6.20
2018-03-18T07:56:05.102Z,-6.10
2018-03-18T07:57:05.724Z,-6.10
2018-03-18T07:58:05.552Z,-6.10
2018-03-18T07:59:04.856Z,-6.10
2018-03-18T08:00:05.387Z,-6.10
2018-03-18T08:01:04.829Z,-6.10
2018-03-18T08:02:05.647Z,-6.10
2018-03-18T08:03:04.837Z,-6.10
2018-03-18T08:04:05.227Z,-6.10
2018-03-18T08:05:05.180Z,-6.10
2018-03-18T08:06:04.923Z,-6.20
2018-03-18T08:07:05.371Z,-6.20
2018-03-18T08:08:05.335Z,-6.20
2018-03-18T08:09:05.300Z,-6.20
2018-03-18T08:10:05.058Z,-6.10
2018-03-18T08:11:05.406Z,-6.10
2018-03-18T08:12:04.825Z,-6.10
2018-03-18T08:13:05.266Z,-6.10
2018-03-18T08:14:05.319Z,-6.00
2018-03-18T08:15:05.005Z,-6.00
2018-03-18T08:16:05.267Z,-6.00
2018-03-18T08:17:04.786Z,-5.90
2018-03-18T08:18:05.140Z,-5.90
2018-03-18T08:19:04.709Z,-5.90
2018-03-18T08:20:05.236Z,-5.90
2018-03-18T08:21:05.388Z,-5.90
2018-03-18T08:22:04.858Z,-5.90
2018-03-18T08:23:04.753Z,-5.90
2018-03-18T08:24:05.241Z,-5.90
2018-03-18T08:25:05.106Z,-5.90
2018-03-18T08:26:04.622Z,-5.90
2018-03-18T08:27:05.576Z,-5.90
2018-03-18T08:28:04.682Z,-5.80
2018-03-18T08:29:05.178Z,-5.80
2018-03-18T08:30:04.816Z,-5.80
2018-03-18T08:31:04.801Z,-5.80
2018-03-18T08:32:05.398Z,-5.80
2018-03-18T08:33:05.152Z,-5.80
2018-03-18T08:34:04.866Z,-5.80
2018-03-18T08:35:04.634Z,-5.90
2018-03-18T08:36:05.378Z,-5.80
2018-03-18T08:37:05.446Z,-5.80
2018-03-18T08:38:05.277Z,-5.80
2018-03-18T08:39:05.130Z,-5.80
2018-03-18T08:40:05.614Z,-5.80
2018-03-18T08:41:05.630Z,-5.90
2018-03-18T08:42:05.534Z,-5.80
2018-03-18T08:43:05.083Z,-5.80
2018-03-18T08:44:05.577Z,-5.80
2018-03-18T08:45:05.388Z,-5.80
2018-03-18T08:46:05.482Z,-5.80
2018-03-18T08:47:05.336Z,-5.70
2018-03-18T08:48:04.666Z,-5.70
2018-03-18T08:49:05.337Z,-5.60
2018-03-18T08:50:05.019Z,-5.60
2018-03-18T08:51:04.743Z,-5.60
2018-03-18T08:52:05.679Z,-5.60
2018-03-18T08:53:04.929Z,-5.60
2018-03-18T08:54:05.579Z,-5.50
2018-03-18T08:55:05.265Z,-5.50
2018-03-18T08:56:04.896Z,-5.50
2018-03-18T08:57:05.576Z,-5.50
2018-03-18T08:58:05.521Z,-5.50
2018-03-18T08:59:05.586Z,-5.50
2018-03-18T09:00:05.248Z,-5.50
2018-03-18T09:01:04.668Z,-5.50
2018-03-18T09:02:05.624Z,-5.50
2018-03-18T09:03:05.495Z,-5.50
2018-03-18T09:04:05.036Z,-5.50
2018-03-18T09:05:04.775Z,-5.50
2018-03-18T09:06:04.751Z,-5.50
2018-03-18T09:07:05.295Z,-5.50
2018-03-18T09:08:05.006Z,-5.50
2018-03-18T09:09:05.535Z,-5.40
2018-03-18T09:10:04.927Z,-5.40
2018-03-18T09:11:05.391Z,-5.40
2018-03-18T09:12:05.329Z,-5.40
2018-03-18T09:13:05.378Z,-5.40
2018-03-18T09:14:09.642Z,-5.40
2018-03-18T09:15:05.364Z,-5.30
2018-03-18T09:16:05.711Z,-5.30
2018-03-18T09:17:04.926Z,-5.30
2018-03-18T09:18:05.578Z,-5.30
2018-03-18T09:19:05.535Z,-5.20
2018-03-18T09:20:04.953Z,-5.20
2018-03-18T09:21:04.940Z,-5.20
2018-03-18T09:22:04.759Z,-5.20
2018-03-18T09:23:05.578Z,-5.10
2018-03-18T09:24:04.915Z,-5.10
2018-03-18T09:25:05.142Z,-5.10
2018-03-18T09:26:05.573Z,-5.10
2018-03-18T09:27:05.624Z,-5.10
2018-03-18T09:28:05.144Z,-5.10
2018-03-18T09:29:05.127Z,-5.10
2018-03-18T09:30:04.988Z,-5.00
2018-03-18T09:31:04.803Z,-5.00
2018-03-18T09:32:04.806Z,-5.00
2018-03-18T09:33:04.859Z,-5.00
2018-03-18T09:34:05.415Z,-5.00
2018-03-18T09:35:05.096Z,-4.90
2018-03-18T09:36:05.540Z,-4.90
2018-03-18T09:37:05.150Z,-4.90
2018-03-18T09:38:04.850Z,-4.90
2018-03-18T09:39:05.423Z,-4.90
2018-03-18T09:40:05.398Z,-4.90
2018-03-18T09:41:04.979Z,-4.90
2018-03-18T09:42:05.626Z,-4.90
2018-03-18T09:43:05.382Z,-4.90
2018-03-18T09:44:04.955Z,-4.90
2018-03-18T09:45:04.760Z,-4.80
2018-03-18T09:46:05.451Z,-4.80
2018-03-18T09:47:05.526Z,-4.80
2018-03-18T09:48:05.465Z,-4.90
2018-03-18T09:49:04.985Z,-4.80
2018-03-18T09:50:05.042Z,-4.80
2018-03-18T09:51:05.131Z,-4.80
2018-03-18T09:52:05.683Z,-4.70
2018-03-18T09:53:05.716Z,-4.70
2018-03-18T09:54:05.074Z,-4.60
2018-03-18T09:55:04.989Z,-4.50
2018-03-18T09:56:04.665Z,-4.50
2018-03-18T09:57:04.693Z,-4.40
2018-03-18T09:58:05.628Z,-4.30
2018-03-18T09:59:05.254Z,-4.30
2018-03-18T10:00:05.617Z,-4.30
2018-03-18T10:01:05.363Z,-4.30
2018-03-18T10:02:04.986Z,-4.30
2018-03-18T10:03:04.870Z,-4.20
2018-03-18T10:04:04.862Z,-4.20
2018-03-18T10:05:05.517Z,-4.20
2018-03-18T10:06:05.516Z,-4.20
2018-03-18T10:07:05.075Z,-4.20
2018-03-18T10:08:05.589Z,-4.30
2018-03-18T10:09:05.658Z,-4.20
2018-03-18T10:10:04.807Z,-4.20
2018-03-18T10:11:04.867Z,-4.20
2018-03-18T10:12:04.727Z,-4.20
2018-03-18T10:13:04.637Z,-4.20
2018-03-18T10:14:05.404Z,-4.20
2018-03-18T10:15:04.787Z,-4.20
2018-03-18T10:16:05.445Z,-4.20
2018-03-18T10:17:05.315Z,-4.10
2018-03-18T10:18:05.462Z,-4.10
2018-03-18T10:19:04.907Z,-4.10
2018-03-18T10:20:05.390Z,-4.10
2018-03-18T10:21:05.260Z,-4.10
2018-03-18T10:22:05.168Z,-4.10
2018-03-18T10:23:04.925Z,-4.10
2018-03-18T10:24:04.990Z,-4.10
2018-03-18T10:25:04.947Z,-4.10
2018-03-18T10:26:04.710Z,-4.10
2018-03-18T10:27:05.288Z,-4.10
2018-03-18T10:28:05.108Z,-4.10
2018-03-18T10:29:05.532Z,-4.10
2018-03-18T10:30:05.440Z,-4.10
2018-03-18T10:31:05.169Z,-4.10
2018-03-18T10:32:04.986Z,-4.00
2018-03-18T10:33:04.959Z,-4.00
2018-03-18T10:34:04.872Z,-3.90
2018-03-18T10:35:05.290Z,-3.90
2018-03-18T10:36:05.100Z,-3.80
2018-03-18T10:37:04.783Z,-3.80
2018-03-18T10:38:05.469Z,-3.80
2018-03-18T10:39:05.052Z,-3.70
2018-03-18T10:40:05.581Z,-3.70
2018-03-18T10:41:05.476Z,-3.70
2018-03-18T10:42:05.423Z,-3.70
2018-03-18T10:43:04.938Z,-3.70
2018-03-18T10:44:05.617Z,-3.70
2018-03-18T10:45:05.273Z,-3.70
2018-03-18T10:46:05.714Z,-3.60
2018-03-18T10:47:04.652Z,-3.60
2018-03-18T10:48:04.830Z,-3.60
2018-03-18T10:49:04.954Z,-3.60
2018-03-18T10:50:05.157Z,-3.60
2018-03-18T10:51:05.111Z,-3.60
2018-03-18T10:52:05.003Z,-3.60
2018-03-18T10:53:05.108Z,-3.60
2018-03-18T10:54:05.600Z,-3.60
2018-03-18T10:55:05.061Z,-3.60
2018-03-18T10:56:05.427Z,-3.60
2018-03-18T10:57:05.291Z,-3.60
2018-03-18T10:58:05.204Z,-3.60
2018-03-18T10:59:04.747Z,-3.60
2018-03-18T11:00:05.475Z,-3.70
2018-03-18T11:01:05.383Z,-3.70
2018-03-18T11:02:05.038Z,-3.70
2018-03-18T11:03:05.055Z,-3.70
2018-03-18T11:04:05.380Z,-3.70
2018-03-18T11:05:05.251Z,-3.70
2018-03-18T11:06:04.779Z,-3.70
2018-03-18T11:07:05.580Z,-3.70
2018-03-18T11:08:05.453Z,-3.70
2018-03-18T11:09:05.616Z,-3.70
2018-03-18T11:10:08.203Z,-3.70
2018-03-18T11:11:05.702Z,-3.70
2018-03-18T11:12:05.359Z,-3.70
2018-03-18T11:13:04.879Z,-3.80
2018-03-18T11:14:04.818Z,-3.80
2018-03-18T11:15:05.417Z,-3.70
2018-03-18T11:16:05.477Z,-3.80
2018-03-18T11:17:05.057Z,-3.80
2018-03-18T11:18:05.271Z,-3.70
2018-03-18T11:19:05.508Z,-3.70
2018-03-18T11:20:04.720Z,-3.70
2018-03-18T11:21:05.302Z,-3.80
2018-03-18T11:22:05.428Z,-3.80
2018-03-18T11:23:04.747Z,-3.80
2018-03-18T11:24:04.745Z,-3.70
2018-03-18T11:25:04.957Z,-3.70
2018-03-18T11:26:05.329Z,-3.70
2018-03-18T11:27:05.000Z,-3.70
2018-03-18T11:28:04.670Z,-3.70
2018-03-18T11:29:05.393Z,-3.70
2018-03-18T11:30:04.803Z,-3.70
2018-03-18T11:31:04.830Z,-3.70
2018-03-18T11:32:05.383Z,-3.70
2018-03-18T11:33:05.217Z,-3.70
2018-03-18T11:34:04.855Z,-3.60
2018-03-18T11:35:04.789Z,-3.60
2018-03-18T11:36:05.352Z,-3.60
2018-03-18T11:37:05.236Z,-3.60
2018-03-18T11:38:05.345Z,-3.60
2018-03-18T11:39:04.786Z,-3.60
2018-03-18T11:40:05.712Z,-3.60
2018-03-18T11:41:05.256Z,-3.60
2018-03-18T11:42:05.705Z,-3.50
2018-03-18T11:43:05.603Z,-3.50
2018-03-18T11:44:05.311Z,-3.50
2018-03-18T11:45:05.023Z,-3.50
2018-03-18T11:46:04.945Z,-3.50
2018-03-18T11:47:05.467Z,-3.50
2018-03-18T11:48:05.519Z,-3.50
2018-03-18T11:49:05.394Z,-3.40
2018-03-18T11:50:05.551Z,-3.40
2018-03-18T11:51:05.119Z,-3.40
2018-03-18T11:52:05.219Z,-3.40
2018-03-18T11:53:05.508Z,-3.40
2018-03-18T11:54:05.166Z,-3.40
2018-03-18T11:55:05.631Z,-3.40
2018-03-18T11:56:05.312Z,-3.40
2018-03-18T11:57:05.718Z,-3.30
2018-03-18T11:58:05.567Z,-3.30
2018-03-18T11:59:05.579Z,-3.30
2018-03-18T12:00:05.662Z,-3.30
2018-03-18T12:01:05.508Z,-3.30
2018-03-18T12:02:04.959Z,-3.20
2018-03-18T12:03:04.941Z,-3.20
2018-03-18T12:04:05.395Z,-3.20
2018-03-18T12:05:05.087Z,-3.20
2018-03-18T12:06:05.189Z,-3.20
2018-03-18T12:07:04.782Z,-3.30
2018-03-18T12:08:05.148Z,-3.30
2018-03-18T12:09:05.111Z,-3.30
2018-03-18T12:10:05.678Z,-3.30
2018-03-18T12:11:05.268Z,-3.30
2018-03-18T12:12:04.814Z,-3.30
2018-03-18T12:13:04.892Z,-3.30
2018-03-18T12:14:05.395Z,-3.30
2018-03-18T12:15:05.321Z,-3.30
2018-03-18T12:16:05.198Z,-3.30
2018-03-18T12:17:04.852Z,-3.30
2018-03-18T12:18:05.587Z,-3.30
2018-03-18T12:19:05.206Z,-3.30
2018-03-18T12:20:04.890Z,-3.20
2018-03-18T12:21:05.399Z,-3.30
2018-03-18T12:22:04.846Z,-3.30
2018-03-18T12:23:04.909Z,-3.30
2018-03-18T12:24:05.016Z,-3.40
2018-03-18T12:25:04.957Z,-3.40
2018-03-18T12:26:05.034Z,-3.40
2018-03-18T12:27:05.108Z,-3.40
2018-03-18T12:28:05.379Z,-3.40
2018-03-18T12:29:04.899Z,-3.40
2018-03-18T12:30:04.673Z,-3.40
2018-03-18T12:31:05.293Z,-3.40
2018-03-18T12:32:05.374Z,-3.40
2018-03-18T12:33:05.276Z,-3.40
2018-03-18T12:34:05.086Z,-3.40
2018-03-18T12:35:04.726Z,-3.40
2018-03-18T12:36:05.107Z,-3.40
2018-03-18T12:37:04.941Z,-3.40
2018-03-18T12:38:04.667Z,-3.40
2018-03-18T12:39:05.594Z,-3.30
2018-03-18T12:40:04.683Z,-3.40
2018-03-18T12:41:05.521Z,-3.30
2018-03-18T12:42:05.105Z,-3.40
2018-03-18T12:43:04.824Z,-3.40
2018-03-18T12:44:04.940Z,-3.40
2018-03-18T12:45:04.928Z,-3.40
2018-03-18T12:46:04.913Z,-3.40
2018-03-18T12:47:05.571Z,-3.30
2018-03-18T12:48:05.317Z,-3.30
2018-03-18T12:49:05.464Z,-3.30
2018-03-18T12:50:04.642Z,-3.30
2018-03-18T12:51:04.932Z,-3.40
2018-03-18T12:52:05.198Z,-3.30